Time;durP1;ratioP1;P1;durP2;ratioP2;P2;SDS_P1;SDS_P2;PMS_P1;PMS_P2;Temp;Humidity;BMP_temperature;BMP_pressure;BME280_temperature;BME280_humidity;BME280_pressure;Samples;Min_cycle;Max_cycle;Signal;HPM_P1;HPM_P2
2023/09/09 00:01:31;;;;;;;;;;;;;;;18.21;63.44;98143.31;5023532;28;19955;-62
2023/09/09 00:04:02;;;;;;;;;;;;;;;18.21;63.50;98143.31;5027367;28;19941;-62
2023/09/09 00:06:30;;;;;;;;;;;;;;;18.23;63.25;98141.03;5028820;28;19925;-62
2023/09/09 00:08:58;;;;;;;;;;;;;;;18.14;63.33;98131.34;5028947;28;19944;-62
2023/09/09 00:11:26;;;;;;;;;;;;;;;18.09;63.46;98146.16;5025466;28;19925;-63
2023/09/09 00:13:53;;;;;;;;;;;;;;;18.08;63.26;98133.59;5027113;28;19929;-62
2023/09/09 00:16:21;;;;;;;;;;;;;;;18.04;63.38;98143.69;5026123;28;20366;-62
2023/09/09 00:18:49;;;;;;;;;;;;;;;18.04;63.52;98138.19;5028432;28;19929;-62
2023/09/09 00:21:18;;;;;;;;;;;;;;;17.95;63.74;98138.38;5025136;28;19983;-62
2023/09/09 00:23:46;;;;;;;;;;;;;;;17.84;64.24;98136.47;5027366;28;20445;-62
2023/09/09 00:26:14;;;;;;;;;;;;;;;17.82;64.19;98141.53;5029117;28;19929;-62
2023/09/09 00:28:43;;;;;;;;;;;;;;;17.79;64.38;98135.63;5014985;28;19979;-62
2023/09/09 00:31:10;;;;;;;;;;;;;;;17.87;64.00;98135.78;5029829;28;19929;-62
2023/09/09 00:33:39;;;;;;;;;;;;;;;17.79;64.03;98143.88;5011081;28;19960;-62
2023/09/09 00:36:06;;;;;;;;;;;;;;;17.88;63.70;98142.88;5023068;28;20293;-62
2023/09/09 00:38:35;;;;;;;;;;;;;;;17.83;63.93;98145.88;5013473;28;19933;-62
2023/09/09 00:41:10;;;;;;;;;;;;;;;17.76;63.81;98132.78;5027504;28;19978;-62
2023/09/09 00:43:39;;;;;;;;;;;;;;;17.74;64.08;98140.56;5029298;28;19932;-62
2023/09/09 00:46:07;;;;;;;;;;;;;;;17.84;63.71;98139.22;5030303;28;19933;-62
2023/09/09 00:48:35;;;;;;;;;;;;;;;17.75;64.10;98140.22;5011522;28;19937;-62
2023/09/09 00:51:02;;;;;;;;;;;;;;;17.78;63.81;98142.25;5029023;28;19925;-62
2023/09/09 00:53:30;;;;;;;;;;;;;;;17.75;64.06;98147.66;5021944;28;19969;-62
2023/09/09 00:56:00;;;;;;;;;;;;;;;17.69;64.13;98144.34;5026288;28;19925;-62
2023/09/09 00:58:30;;;;;;;;;;;;;;;17.62;64.47;98135.09;5006837;28;20260;-62
2023/09/09 01:01:01;;;;;;;;;;;;;;;17.52;64.86;98136.41;5028795;28;19932;-62
2023/09/09 01:03:30;;;;;;;;;;;;;;;17.53;64.73;98135.28;5030527;28;19988;-62
2023/09/09 01:05:59;;;;;;;;;;;;;;;17.50;64.79;98138.72;5030076;28;19931;-62
2023/09/09 01:08:27;;;;;;;;;;;;;;;17.53;64.84;98135.28;5031426;28;19925;-62
2023/09/09 01:10:55;;;;;;;;;;;;;;;17.54;64.69;98134.13;5025022;28;19925;-63
2023/09/09 01:13:24;;;;;;;;;;;;;;;17.55;64.68;98130.22;5006424;28;19925;-62
2023/09/09 01:15:53;;;;;;;;;;;;;;;17.43;65.04;98130.28;5015484;28;19928;-62
2023/09/09 01:18:21;;;;;;;;;;;;;;;17.44;64.88;98127.19;5011065;28;20290;-62
2023/09/09 01:20:51;;;;;;;;;;;;;;;17.47;64.81;98133.91;5011960;28;19933;-62
2023/09/09 01:23:20;;;;;;;;;;;;;;;17.41;64.95;98129.81;5027894;28;19957;-63
2023/09/09 01:25:48;;;;;;;;;;;;;;;17.42;64.87;98128.69;5023369;28;19929;-62
2023/09/09 01:28:16;;;;;;;;;;;;;;;17.43;64.77;98135.78;5008755;28;19925;-62
2023/09/09 01:30:44;;;;;;;;;;;;;;;17.45;64.81;98134.28;5031561;28;19983;-62
2023/09/09 01:33:12;;;;;;;;;;;;;;;17.39;65.08;98132.13;5026023;28;19926;-62
2023/09/09 01:35:39;;;;;;;;;;;;;;;17.42;64.87;98137.75;5024251;28;20004;-62
2023/09/09 01:38:07;;;;;;;;;;;;;;;17.42;64.87;98140.47;5026533;28;20340;-62
2023/09/09 01:40:36;;;;;;;;;;;;;;;17.30;65.21;98137.78;5012905;28;19929;-62
2023/09/09 01:43:05;;;;;;;;;;;;;;;17.35;65.04;98139.47;5010697;28;19931;-62
2023/09/09 01:45:33;;;;;;;;;;;;;;;17.39;65.05;98141.16;5008955;28;19944;-62
2023/09/09 01:48:01;;;;;;;;;;;;;;;17.14;65.59;98140.47;5024579;28;20334;-62
2023/09/09 01:50:30;;;;;;;;;;;;;;;17.15;65.86;98144.84;5002534;28;19925;-62
2023/09/09 01:52:58;;;;;;;;;;;;;;;17.26;65.69;98142.38;5010745;28;19925;-62
2023/09/09 01:55:26;;;;;;;;;;;;;;;17.08;65.92;98141.88;5025445;28;19948;-62
2023/09/09 01:57:58;;;;;;;;;;;;;;;17.09;65.87;98143.47;5010665;28;19932;-62
2023/09/09 02:00:27;;;;;;;;;;;;;;;16.98;66.36;98136.84;5011784;28;19932;-62
2023/09/09 02:02:58;;;;;;;;;;;;;;;17.11;65.83;98138.44;5026925;28;19925;-62
2023/09/09 02:05:27;;;;;;;;;;;;;;;16.94;66.42;98135.97;5026805;28;19926;-62
2023/09/09 02:07:55;;;;;;;;;;;;;;;16.95;66.29;98143.84;5010676;28;19940;-62
2023/09/09 02:10:23;;;;;;;;;;;;;;;17.05;66.03;98142.56;5008392;28;19925;-62
2023/09/09 02:12:51;;;;;;;;;;;;;;;17.02;65.92;98148.75;5013249;28;19944;-62
2023/09/09 02:15:21;;;;;;;;;;;;;;;16.99;66.08;98138.44;5006423;28;19925;-62
2023/09/09 02:17:51;;;;;;;;;;;;;;;17.01;66.01;98138.94;5029266;28;19929;-62
2023/09/09 02:20:19;;;;;;;;;;;;;;;16.82;66.52;98133.25;5029946;28;19925;-63
2023/09/09 02:22:47;;;;;;;;;;;;;;;16.99;65.99;98138.44;5007303;28;20031;-62
2023/09/09 02:25:15;;;;;;;;;;;;;;;17.00;66.00;98135.38;5010361;28;19972;-63
2023/09/09 02:27:43;;;;;;;;;;;;;;;16.69;67.00;98140.69;5028598;28;19999;-62
2023/09/09 02:30:11;;;;;;;;;;;;;;;16.93;66.20;98139.84;5012809;28;19925;-62
2023/09/09 02:32:40;;;;;;;;;;;;;;;17.03;65.78;98133.88;5028785;28;19925;-62
2023/09/09 02:35:09;;;;;;;;;;;;;;;17.07;65.59;98133.97;5030067;28;19936;-62
2023/09/09 02:37:37;;;;;;;;;;;;;;;17.06;65.55;98138.69;5029539;28;20510;-62
2023/09/09 02:40:05;;;;;;;;;;;;;;;17.09;65.50;98143.47;5004708;28;19929;-62
2023/09/09 02:42:33;;;;;;;;;;;;;;;16.94;65.86;98145.00;5026719;28;19925;-62
2023/09/09 02:45:02;;;;;;;;;;;;;;;16.87;66.02;98131.06;5005197;28;20366;-62
2023/09/09 02:47:30;;;;;;;;;;;;;;;16.73;66.55;98136.16;5011460;28;19925;-62
2023/09/09 02:49:58;;;;;;;;;;;;;;;16.73;66.70;98142.44;5026110;28;19929;-62
2023/09/09 02:52:26;;;;;;;;;;;;;;;16.83;66.34;98134.84;5010429;28;19936;-62
2023/09/09 02:54:54;;;;;;;;;;;;;;;16.91;66.15;98134.72;5002513;28;19930;-62
2023/09/09 02:57:22;;;;;;;;;;;;;;;16.76;66.66;98136.22;5003793;28;19932;-62
2023/09/09 02:59:53;;;;;;;;;;;;;;;16.87;66.22;98131.06;5009520;28;19929;-62
2023/09/09 03:02:21;;;;;;;;;;;;;;;16.92;66.03;98135.50;5031029;28;20292;-62
2023/09/09 03:04:48;;;;;;;;;;;;;;;16.90;66.22;98140.56;5012112;28;19929;-62
2023/09/09 03:07:18;;;;;;;;;;;;;;;16.80;66.38;98136.34;5005707;28;19961;-62
2023/09/09 03:09:46;;;;;;;;;;;;;;;16.68;67.00;98137.16;5011553;28;20294;-62
2023/09/09 03:12:20;;;;;;;;;;;;;;;16.58;67.32;98137.63;5012002;28;19932;-62
2023/09/09 03:14:48;;;;;;;;;;;;;;;16.73;66.82;98136.16;5009110;28;19952;-62
2023/09/09 03:17:16;;;;;;;;;;;;;;;16.73;66.66;98134.19;5024832;28;19933;-62
2023/09/09 03:19:45;;;;;;;;;;;;;;;16.60;67.20;98129.03;5014020;28;19979;-62
2023/09/09 03:22:13;;;;;;;;;;;;;;;16.60;67.19;98132.56;5008514;28;19956;-62
2023/09/09 03:24:43;;;;;;;;;;;;;;;16.55;67.57;98135.56;5009689;28;20303;-62
2023/09/09 03:27:10;;;;;;;;;;;;;;;16.58;67.40;98139.56;5009278;28;19926;-63
2023/09/09 03:29:38;;;;;;;;;;;;;;;16.52;67.55;98144.50;5030882;28;19929;-62
2023/09/09 03:32:06;;;;;;;;;;;;;;;16.33;68.07;98138.78;5029791;28;19929;-62
2023/09/09 03:34:34;;;;;;;;;;;;;;;16.18;68.57;98143.78;5005850;28;19925;-62
2023/09/09 03:37:02;;;;;;;;;;;;;;;16.06;69.18;98146.53;5024312;28;19964;-62
2023/09/09 03:39:30;;;;;;;;;;;;;;;15.98;69.24;98151.00;5010472;28;20341;-60
2023/09/09 03:41:59;;;;;;;;;;;;;;;15.97;69.47;98143.88;5010238;28;19932;-60
2023/09/09 03:44:27;;;;;;;;;;;;;;;16.03;69.23;98147.19;5010024;28;19937;-60
2023/09/09 03:46:55;;;;;;;;;;;;;;;16.03;68.96;98138.97;5010732;28;19957;-60
2023/09/09 03:49:22;;;;;;;;;;;;;;;15.98;69.05;98145.50;5026331;28;19984;-61
2023/09/09 03:51:50;;;;;;;;;;;;;;;16.02;69.26;98148.34;5022093;28;19929;-60
2023/09/09 03:54:18;;;;;;;;;;;;;;;16.10;68.74;98141.19;5027601;28;19929;-61
2023/09/09 03:56:46;;;;;;;;;;;;;;;16.11;68.58;98143.56;5006895;28;20345;-60
2023/09/09 03:59:17;;;;;;;;;;;;;;;16.12;68.52;98145.16;5011215;28;19941;-60
2023/09/09 04:01:45;;;;;;;;;;;;;;;16.23;68.31;98145.50;5021321;28;19925;-60
2023/09/09 04:04:13;;;;;;;;;;;;;;;16.27;68.10;98151.91;5028434;28;20279;-60
2023/09/09 04:06:41;;;;;;;;;;;;;;;16.21;68.17;98137.63;5025409;28;20371;-60
2023/09/09 04:09:09;;;;;;;;;;;;;;;16.18;68.24;98143.78;5029765;28;19925;-60
2023/09/09 04:11:37;;;;;;;;;;;;;;;16.24;68.20;98142.44;5014668;28;19925;-60
2023/09/09 04:14:05;;;;;;;;;;;;;;;16.31;67.90;98141.06;5008026;28;19925;-60
2023/09/09 04:16:35;;;;;;;;;;;;;;;16.23;67.96;98138.09;5030481;28;19929;-60
2023/09/09 04:19:02;;;;;;;;;;;;;;;16.20;68.18;98147.00;5030479;28;19925;-60
2023/09/09 04:21:30;;;;;;;;;;;;;;;16.08;68.65;98140.69;5014572;28;19964;-60
2023/09/09 04:23:58;;;;;;;;;;;;;;;16.20;68.13;98152.50;5008182;28;20370;-60
2023/09/09 04:26:26;;;;;;;;;;;;;;;16.10;68.31;98147.47;5013116;28;19949;-60
2023/09/09 04:28:53;;;;;;;;;;;;;;;16.24;67.83;98150.66;5006390;28;19932;-60
2023/09/09 04:31:21;;;;;;;;;;;;;;;16.30;67.58;98155.91;5030840;28;19945;-60
2023/09/09 04:33:50;;;;;;;;;;;;;;;16.05;67.97;98150.41;5011700;28;19994;-60
2023/09/09 04:36:18;;;;;;;;;;;;;;;16.14;67.46;98148.38;5015114;28;19960;-61
2023/09/09 04:38:46;;;;;;;;;;;;;;;16.09;67.43;98140.38;5030802;28;19929;-60
2023/09/09 04:41:14;;;;;;;;;;;;;;;16.12;67.53;98142.41;5012858;28;19940;-60
2023/09/09 04:43:43;;;;;;;;;;;;;;;16.04;67.65;98142.56;5011862;28;19925;-60
2023/09/09 04:46:11;;;;;;;;;;;;;;;16.06;67.05;98149.28;5013942;28;19932;-60
2023/09/09 04:48:40;;;;;;;;;;;;;;;16.03;66.97;98146.41;5014065;28;19925;-60
2023/09/09 04:51:09;;;;;;;;;;;;;;;15.99;67.08;98146.31;5026333;28;20299;-60
2023/09/09 04:53:38;;;;;;;;;;;;;;;16.03;66.78;98147.19;5010144;28;19929;-60
2023/09/09 04:56:06;;;;;;;;;;;;;;;16.01;66.96;98151.44;5028184;28;19925;-60
2023/09/09 04:58:35;;;;;;;;;;;;;;;16.02;66.88;98153.84;5004174;28;19925;-60
2023/09/09 05:01:04;;;;;;;;;;;;;;;15.93;67.16;98164.91;5013464;28;19956;-60
2023/09/09 05:03:31;;;;;;;;;;;;;;;15.95;66.92;98154.41;5028416;28;19987;-60
2023/09/09 05:05:59;;;;;;;;;;;;;;;15.95;67.09;98150.88;5030045;28;19933;-61
2023/09/09 05:08:29;;;;;;;;;;;;;;;15.78;67.79;98160.09;5029240;28;19933;-60
2023/09/09 05:10:56;;;;;;;;;;;;;;;15.92;67.24;98162.50;5006936;28;20288;-61
2023/09/09 05:13:26;;;;;;;;;;;;;;;15.96;66.82;98164.22;5025973;28;19932;-60
2023/09/09 05:15:56;;;;;;;;;;;;;;;15.96;67.13;98168.91;5027607;28;20291;-60
2023/09/09 05:18:24;;;;;;;;;;;;;;;15.93;67.19;98164.13;5013857;28;20455;-60
2023/09/09 05:20:54;;;;;;;;;;;;;;;15.79;67.43;98163.63;5013789;28;19940;-60
2023/09/09 05:23:22;;;;;;;;;;;;;;;15.66;67.82;98166.34;5027627;28;19936;-60
2023/09/09 05:25:51;;;;;;;;;;;;;;;15.61;67.88;98174.75;5013459;28;19975;-60
2023/09/09 05:28:19;;;;;;;;;;;;;;;15.67;67.87;98173.41;5026420;28;19943;-60
2023/09/09 05:30:47;;;;;;;;;;;;;;;15.75;67.46;98173.66;5025696;28;19971;-60
2023/09/09 05:33:14;;;;;;;;;;;;;;;15.73;67.30;98170.47;5030250;28;20003;-60
2023/09/09 05:35:43;;;;;;;;;;;;;;;15.65;67.50;98172.94;5010747;28;19926;-61
2023/09/09 05:38:11;;;;;;;;;;;;;;;15.71;67.40;98179.00;5020888;28;19955;-60
2023/09/09 05:40:39;;;;;;;;;;;;;;;15.81;66.88;98172.28;5012921;28;19928;-61
2023/09/09 05:43:08;;;;;;;;;;;;;;;15.75;67.14;98171.72;5009023;28;19933;-61
2023/09/09 05:45:36;;;;;;;;;;;;;;;15.64;67.48;98174.06;5011387;28;19926;-60
2023/09/09 05:48:04;;;;;;;;;;;;;;;15.69;67.51;98181.28;5028129;28;19971;-60
2023/09/09 05:50:32;;;;;;;;;;;;;;;15.57;67.84;98182.03;5024246;28;19976;-60
2023/09/09 05:53:00;;;;;;;;;;;;;;;15.61;67.89;98182.16;5011228;28;19933;-61
2023/09/09 05:55:29;;;;;;;;;;;;;;;15.61;67.89;98180.22;5030626;28;19929;-61
2023/09/09 05:57:57;;;;;;;;;;;;;;;15.64;67.94;98184.22;5007937;28;19929;-60
2023/09/09 06:00:26;;;;;;;;;;;;;;;15.68;67.52;98176.94;5024717;28;19994;-60
2023/09/09 06:02:54;;;;;;;;;;;;;;;15.67;67.78;98183.56;5008661;28;19965;-61
2023/09/09 06:05:22;;;;;;;;;;;;;;;15.65;68.05;98180.34;5028090;28;19925;-61
2023/09/09 06:07:50;;;;;;;;;;;;;;;15.69;68.03;98181.28;5022484;28;19955;-61
2023/09/09 06:10:18;;;;;;;;;;;;;;;15.61;68.36;98185.69;5012224;28;19932;-61
2023/09/09 06:12:46;;;;;;;;;;;;;;;15.78;67.97;98183.94;5012618;28;20004;-60
2023/09/09 06:15:14;;;;;;;;;;;;;;;15.81;68.12;98186.78;5028087;28;19925;-60
2023/09/09 06:17:45;;;;;;;;;;;;;;;15.82;68.06;98179.38;5007620;28;19929;-61
2023/09/09 06:20:14;;;;;;;;;;;;;;;15.90;68.04;98192.19;5013559;28;19929;-61
2023/09/09 06:22:42;;;;;;;;;;;;;;;15.89;68.32;98185.91;5003127;28;19930;-61
2023/09/09 06:25:09;;;;;;;;;;;;;;;16.06;67.80;98190.38;5028063;28;19929;-61
2023/09/09 06:27:38;;;;;;;;;;;;;;;15.91;68.57;98188.28;5009680;28;19936;-60
2023/09/09 06:30:06;;;;;;;;;;;;;;;15.91;68.62;98191.03;5009436;28;21355;-62
2023/09/09 06:32:34;;;;;;;;;;;;;;;16.14;68.20;98196.88;5009149;28;20302;-61
2023/09/09 06:35:03;;;;;;;;;;;;;;;16.10;68.71;98202.28;5011005;28;20716;-61
2023/09/09 06:37:31;;;;;;;;;;;;;;;16.07;69.07;98202.94;5028495;28;21410;-61
2023/09/09 06:39:59;;;;;;;;;;;;;;;16.36;68.33;98203.91;5025765;28;19994;-61
2023/09/09 06:42:26;;;;;;;;;;;;;;;16.36;68.36;98209.38;5025590;28;19929;-60
2023/09/09 06:44:59;;;;;;;;;;;;;;;16.50;68.51;98202.41;5005829;28;19950;-61
2023/09/09 06:47:27;;;;;;;;;;;;;;;16.51;68.49;98200.44;5029397;28;19925;-61
2023/09/09 06:49:55;;;;;;;;;;;;;;;16.50;68.56;98209.84;5027077;28;19926;-61
2023/09/09 06:52:24;;;;;;;;;;;;;;;16.69;67.91;98206.53;5011751;28;19929;-60
2023/09/09 06:54:51;;;;;;;;;;;;;;;16.81;68.12;98209.28;5024598;28;20016;-60
2023/09/09 06:57:21;;;;;;;;;;;;;;;16.73;67.92;98210.22;5024289;28;19929;-61
2023/09/09 06:59:48;;;;;;;;;;;;;;;16.87;68.10;98212.59;5024840;28;19933;-61
2023/09/09 07:02:16;;;;;;;;;;;;;;;16.91;67.95;98219.00;5029028;28;19988;-61
2023/09/09 07:04:45;;;;;;;;;;;;;;;17.07;67.26;98213.59;5028423;28;20424;-61
2023/09/09 07:07:13;;;;;;;;;;;;;;;17.12;67.50;98200.41;5025915;28;19926;-61
2023/09/09 07:09:45;;;;;;;;;;;;;;;17.23;67.00;98208.97;5023431;28;19929;-61
2023/09/09 07:12:12;;;;;;;;;;;;;;;17.22;67.09;98208.19;5024539;28;19975;-61
2023/09/09 07:14:40;;;;;;;;;;;;;;;17.36;67.15;98213.25;5023379;28;20382;-61
2023/09/09 07:17:08;;;;;;;;;;;;;;;17.44;66.94;98208.78;5027863;28;20391;-61
2023/09/09 07:19:36;;;;;;;;;;;;;;;17.54;66.86;98220.09;5025001;28;19975;-61
2023/09/09 07:22:04;;;;;;;;;;;;;;;17.55;66.54;98207.94;5019763;28;19929;-61
2023/09/09 07:24:32;;;;;;;;;;;;;;;17.66;66.73;98215.69;5027402;28;19955;-61
2023/09/09 07:27:01;;;;;;;;;;;;;;;17.71;66.23;98207.19;5035579;28;19936;-61
2023/09/09 07:29:29;;;;;;;;;;;;;;;17.76;65.72;98210.50;5026182;28;19925;-60
2023/09/09 07:31:57;;;;;;;;;;;;;;;17.84;66.39;98205.19;5023546;28;20378;-61
2023/09/09 07:34:25;;;;;;;;;;;;;;;17.92;66.07;98207.00;5028032;28;19933;-62
2023/09/09 07:36:53;;;;;;;;;;;;;;;17.99;66.14;98213.47;5026659;28;19930;-61
2023/09/09 07:39:22;;;;;;;;;;;;;;;18.06;66.14;98208.19;5027570;28;19929;-61
2023/09/09 07:41:49;;;;;;;;;;;;;;;18.13;65.73;98207.56;5027986;28;19925;-60
2023/09/09 07:44:19;;;;;;;;;;;;;;;18.21;65.74;98208.53;5024906;28;19937;-61
2023/09/09 07:46:47;;;;;;;;;;;;;;;18.27;65.63;98207.13;5027689;28;19925;-60
2023/09/09 07:49:14;;;;;;;;;;;;;;;18.37;65.28;98209.31;5024621;28;20405;-60
2023/09/09 07:51:42;;;;;;;;;;;;;;;18.48;65.27;98201.31;5030761;28;19925;-60
2023/09/09 07:54:10;;;;;;;;;;;;;;;18.55;65.53;98207.81;5027954;28;19929;-60
2023/09/09 07:56:41;;;;;;;;;;;;;;;18.63;64.76;98207.97;5028281;28;19972;-60
2023/09/09 07:59:09;;;;;;;;;;;;;;;18.68;65.04;98199.47;5024516;28;20006;-61
2023/09/09 08:01:38;;;;;;;;;;;;;;;18.76;64.97;98207.56;5011130;28;19926;-61
2023/09/09 08:04:06;;;;;;;;;;;;;;;18.86;64.52;98208.16;5030938;28;20408;-61
2023/09/09 08:06:34;;;;;;;;;;;;;;;18.93;64.75;98205.56;5024827;28;20374;-61
2023/09/09 08:09:02;;;;;;;;;;;;;;;18.98;63.89;98203.31;5029885;28;19925;-61
2023/09/09 08:11:30;;;;;;;;;;;;;;;19.05;63.65;98203.47;5024156;28;20002;-61
2023/09/09 08:13:57;;;;;;;;;;;;;;;19.15;63.89;98202.13;5026445;28;19990;-61
2023/09/09 08:16:25;;;;;;;;;;;;;;;19.23;63.74;98211.31;5026846;28;19925;-61
2023/09/09 08:18:55;;;;;;;;;;;;;;;19.29;63.90;98213.44;5027170;28;19929;-61
2023/09/09 08:21:24;;;;;;;;;;;;;;;19.36;64.16;98205.31;5007179;28;19931;-61
2023/09/09 08:23:52;;;;;;;;;;;;;;;19.46;62.70;98211.44;5027190;28;19933;-61
2023/09/09 08:26:20;;;;;;;;;;;;;;;19.50;63.58;98215.84;5028242;28;19940;-61
2023/09/09 08:28:47;;;;;;;;;;;;;;;19.58;65.10;98216.78;5024645;28;20303;-61
2023/09/09 08:31:16;;;;;;;;;;;;;;;19.64;63.36;98209.84;5019568;28;20039;-61
2023/09/09 08:33:44;;;;;;;;;;;;;;;19.71;63.48;98206.41;5027311;28;20306;-60
2023/09/09 08:36:14;;;;;;;;;;;;;;;19.75;63.41;98213.59;5023485;28;19933;-60
2023/09/09 08:38:41;;;;;;;;;;;;;;;19.81;63.45;98212.13;5024420;28;19971;-61
2023/09/09 08:41:10;;;;;;;;;;;;;;;19.86;63.27;98214.59;5024574;28;19925;-62
2023/09/09 08:43:41;;;;;;;;;;;;;;;19.93;62.24;98225.00;5022785;28;19929;-61
2023/09/09 08:46:11;;;;;;;;;;;;;;;20.00;62.60;98218.78;5026046;28;19932;-60
2023/09/09 08:48:38;;;;;;;;;;;;;;;20.08;62.58;98209.47;5022438;28;19929;-60
2023/09/09 08:51:06;;;;;;;;;;;;;;;20.12;62.40;98218.63;5006771;28;19979;-60
2023/09/09 08:53:35;;;;;;;;;;;;;;;20.16;62.56;98225.00;5025984;28;19925;-61
2023/09/09 08:56:03;;;;;;;;;;;;;;;20.31;61.45;98213.06;5023227;28;20525;-61
2023/09/09 08:58:31;;;;;;;;;;;;;;;20.34;61.44;98222.53;5032520;28;19929;-61
2023/09/09 09:00:59;;;;;;;;;;;;;;;20.40;61.46;98221.09;5016220;28;19936;-60
2023/09/09 09:03:27;;;;;;;;;;;;;;;20.41;61.05;98217.97;5030152;28;19932;-60
2023/09/09 09:05:55;;;;;;;;;;;;;;;20.50;61.64;98220.47;5027050;28;20393;-61
2023/09/09 09:08:23;;;;;;;;;;;;;;;20.51;60.85;98222.09;5030029;28;19929;-60
2023/09/09 09:10:52;;;;;;;;;;;;;;;20.56;62.01;98212.69;5030298;28;19984;-61
2023/09/09 09:13:20;;;;;;;;;;;;;;;20.67;61.07;98219.19;5027687;28;19974;-61
2023/09/09 09:15:47;;;;;;;;;;;;;;;20.71;60.82;98213.72;5028912;28;20290;-60
2023/09/09 09:18:15;;;;;;;;;;;;;;;20.78;60.69;98217.41;5033369;28;20513;-60
2023/09/09 09:20:44;;;;;;;;;;;;;;;20.77;60.38;98213.00;5031913;28;19925;-61
2023/09/09 09:23:12;;;;;;;;;;;;;;;20.84;61.58;98210.38;5028953;28;19932;-61
2023/09/09 09:25:41;;;;;;;;;;;;;;;20.96;60.55;98203.84;5031713;28;19925;-61
2023/09/09 09:28:11;;;;;;;;;;;;;;;20.99;58.77;98202.31;5032700;28;19979;-61
2023/09/09 09:30:38;;;;;;;;;;;;;;;21.05;59.08;98200.81;5028251;28;20295;-61
2023/09/09 09:33:06;;;;;;;;;;;;;;;21.04;59.60;98204.72;5023852;28;20371;-60
2023/09/09 09:35:36;;;;;;;;;;;;;;;21.06;58.93;98205.16;5032075;28;20279;-60
2023/09/09 09:38:05;;;;;;;;;;;;;;;21.10;58.98;98208.78;5027690;28;20306;-60
2023/09/09 09:40:34;;;;;;;;;;;;;;;21.11;58.17;98199.31;5020502;28;19925;-60
2023/09/09 09:43:01;;;;;;;;;;;;;;;21.18;60.43;98200.19;5029359;28;20056;-60
2023/09/09 09:45:31;;;;;;;;;;;;;;;21.26;58.30;98201.09;5022287;28;19931;-60
2023/09/09 09:47:59;;;;;;;;;;;;;;;21.32;58.77;98199.63;5028256;28;19991;-61
2023/09/09 09:50:28;;;;;;;;;;;;;;;21.33;57.77;98198.44;5028387;28;20043;-61
2023/09/09 09:52:57;;;;;;;;;;;;;;;21.39;59.78;98205.25;5022921;28;19932;-61
2023/09/09 09:55:25;;;;;;;;;;;;;;;21.51;58.36;98200.63;5026258;28;19935;-60
2023/09/09 09:57:54;;;;;;;;;;;;;;;21.61;57.72;98188.91;5028368;28;19933;-61
2023/09/09 10:00:22;;;;;;;;;;;;;;;21.62;58.42;98196.03;5024265;28;20713;-62
2023/09/09 10:02:56;;;;;;;;;;;;;;;21.76;58.33;98198.16;5025410;28;19932;-60
2023/09/09 10:05:25;;;;;;;;;;;;;;;21.82;57.84;98202.19;5028914;28;19929;-62
2023/09/09 10:07:54;;;;;;;;;;;;;;;21.93;56.84;98192.81;5020140;28;19934;-61
2023/09/09 10:10:22;;;;;;;;;;;;;;;22.12;56.42;98188.31;5026477;28;19925;-61
2023/09/09 10:12:51;;;;;;;;;;;;;;;22.18;55.60;98192.31;5025994;28;19935;-62
2023/09/09 10:15:19;;;;;;;;;;;;;;;22.21;55.22;98188.75;5022490;28;20016;-59
2023/09/09 10:17:47;;;;;;;;;;;;;;;22.22;55.73;98187.59;5028761;28;19951;-58
2023/09/09 10:20:17;;;;;;;;;;;;;;;22.24;55.78;98182.47;5027037;28;19926;-58
2023/09/09 10:22:45;;;;;;;;;;;;;;;22.50;55.14;98184.28;5029793;28;19925;-58
2023/09/09 10:25:13;;;;;;;;;;;;;;;22.51;54.60;98174.78;5028153;28;19944;-61
2023/09/09 10:27:41;;;;;;;;;;;;;;;22.55;54.17;98172.84;5029561;28;19960;-61
2023/09/09 10:30:09;;;;;;;;;;;;;;;22.60;54.65;98171.69;5029241;28;19971;-61
2023/09/09 10:32:38;;;;;;;;;;;;;;;22.66;54.36;98167.38;5025093;28;19929;-61
2023/09/09 10:35:06;;;;;;;;;;;;;;;22.67;55.16;98172.53;5027265;28;20011;-61
2023/09/09 10:37:37;;;;;;;;;;;;;;;22.68;54.28;98163.03;5028762;28;19925;-62
2023/09/09 10:40:05;;;;;;;;;;;;;;;22.91;55.07;98168.38;5030486;28;19987;-62
2023/09/09 10:42:35;;;;;;;;;;;;;;;23.06;56.08;98162.88;5030422;28;19929;-61
2023/09/09 10:45:21;;;;;;;;;;;;;;;22.94;55.12;98164.81;5031654;28;19925;-61
2023/09/09 10:47:52;;;;;;;;;;;;;;;22.89;54.14;98164.38;5027606;28;19927;-61
2023/09/09 10:50:20;;;;;;;;;;;;;;;22.93;53.83;98168.78;5027862;28;19931;-62
2023/09/09 10:52:53;;;;;;;;;;;;;;;22.87;52.97;98166.72;5008863;28;20390;-62
2023/09/09 10:55:27;;;;;;;;;;;;;;;22.81;53.81;98166.31;5029495;28;19952;-62
2023/09/09 10:57:58;;;;;;;;;;;;;;;22.90;53.85;98171.50;5024625;28;19982;-63
2023/09/09 11:00:35;;;;;;;;;;;;;;;23.03;52.13;98163.69;5025688;28;19929;-62
2023/09/09 11:03:04;;;;;;;;;;;;;;;23.07;51.91;98165.31;5028915;28;19987;-62
2023/09/09 11:05:34;;;;;;;;;;;;;;;23.17;51.90;98156.25;5030225;28;21312;-63
2023/09/09 11:08:03;;;;;;;;;;;;;;;23.08;51.96;98161.34;5024562;28;19943;-62
2023/09/09 11:10:33;;;;;;;;;;;;;;;23.10;52.08;98158.16;5025442;28;19925;-63
2023/09/09 11:13:01;;;;;;;;;;;;;;;23.14;52.65;98167.31;5028053;28;20379;-63
2023/09/09 11:15:29;;;;;;;;;;;;;;;23.15;52.32;98163.34;5028919;28;19925;-62
2023/09/09 11:17:59;;;;;;;;;;;;;;;23.22;51.64;98158.66;5026233;28;19925;-63
2023/09/09 11:20:26;;;;;;;;;;;;;;;23.24;50.62;98156.25;5026139;28;19925;-63
2023/09/09 11:22:54;;;;;;;;;;;;;;;23.29;50.07;98154.31;5024130;28;19998;-63
2023/09/09 11:25:23;;;;;;;;;;;;;;;23.40;48.45;98157.91;5030181;28;20431;-64
2023/09/09 11:27:51;;;;;;;;;;;;;;;23.29;49.22;98163.41;5025498;28;19939;-62
2023/09/09 11:30:19;;;;;;;;;;;;;;;23.34;50.70;98160.28;5024513;28;19925;-62
2023/09/09 11:32:48;;;;;;;;;;;;;;;23.30;49.61;98159.47;5021228;28;19925;-63
2023/09/09 11:35:17;;;;;;;;;;;;;;;23.35;49.07;98159.09;5030703;28;19933;-62
2023/09/09 11:37:47;;;;;;;;;;;;;;;23.43;48.94;98157.13;5025094;28;19925;-63
2023/09/09 11:40:17;;;;;;;;;;;;;;;23.62;48.85;98158.78;5028708;28;19935;-64
2023/09/09 11:42:53;;;;;;;;;;;;;;;23.48;49.73;98153.97;5030254;28;19933;-63
2023/09/09 11:45:22;;;;;;;;;;;;;;;23.46;48.95;98151.59;5028347;28;19956;-64
2023/09/09 11:47:50;;;;;;;;;;;;;;;23.42;47.76;98145.25;5030482;28;19970;-63
2023/09/09 11:50:18;;;;;;;;;;;;;;;23.42;48.73;98136.13;5027661;28;20555;-64
2023/09/09 11:52:46;;;;;;;;;;;;;;;23.44;49.12;98148.44;5028098;28;19925;-63
2023/09/09 11:55:16;;;;;;;;;;;;;;;23.52;46.46;98144.47;5023648;28;19925;-63
2023/09/09 11:57:55;;;;;;;;;;;;;;;23.56;46.78;98144.50;5030696;28;19990;-61
2023/09/09 12:00:23;;;;;;;;;;;;;;;23.68;44.72;98135.03;5022831;28;20431;-62
2023/09/09 12:02:51;;;;;;;;;;;;;;;23.76;47.32;98131.91;5028067;28;19933;-63
2023/09/09 12:05:19;;;;;;;;;;;;;;;23.79;45.45;98127.53;5023243;28;19951;-62
2023/09/09 12:07:46;;;;;;;;;;;;;;;23.92;45.56;98131.53;5025033;28;19925;-61
2023/09/09 12:10:14;;;;;;;;;;;;;;;23.99;46.21;98123.22;5025168;28;19940;-62
2023/09/09 12:12:42;;;;;;;;;;;;;;;23.98;46.09;98132.72;5022386;28;19925;-64
2023/09/09 12:15:12;;;;;;;;;;;;;;;23.89;47.84;98137.84;5024711;28;20330;-62
2023/09/09 12:17:39;;;;;;;;;;;;;;;23.82;48.93;98131.53;5029566;28;19927;-61
2023/09/09 12:20:08;;;;;;;;;;;;;;;23.68;48.05;98133.06;5027474;28;20290;-65
2023/09/09 12:22:37;;;;;;;;;;;;;;;23.94;45.69;98128.34;5022576;28;19932;-62
2023/09/09 12:25:05;;;;;;;;;;;;;;;23.94;45.86;98131.13;5025452;28;20162;-61
2023/09/09 12:27:40;;;;;;;;;;;;;;;23.85;48.41;98134.28;5022610;28;19948;-64
2023/09/09 12:30:08;;;;;;;;;;;;;;;23.94;46.49;98126.38;5030347;28;19931;-62
2023/09/09 12:32:37;;;;;;;;;;;;;;;24.16;44.77;98127.19;5028478;28;19939;-62
2023/09/09 12:35:07;;;;;;;;;;;;;;;24.17;46.16;98123.19;5033071;28;19983;-62
2023/09/09 12:37:34;;;;;;;;;;;;;;;24.23;44.62;98126.38;5026058;28;19924;-62
2023/09/09 12:40:02;;;;;;;;;;;;;;;24.35;45.15;98128.81;5033627;28;19925;-65
2023/09/09 12:42:30;;;;;;;;;;;;;;;24.44;44.14;98125.59;5032629;28;19932;-62
2023/09/09 12:44:58;;;;;;;;;;;;;;;24.47;44.47;98124.81;5032541;28;19929;-64
2023/09/09 12:47:26;;;;;;;;;;;;;;;24.63;44.26;98127.19;5031473;28;19933;-63
2023/09/09 12:49:55;;;;;;;;;;;;;;;24.42;45.34;98128.78;5033615;28;20375;-63
2023/09/09 12:52:23;;;;;;;;;;;;;;;24.41;43.24;98123.63;5023932;28;20326;-62
2023/09/09 12:54:51;;;;;;;;;;;;;;;24.30;46.01;98121.63;5032145;28;20380;-63